Time;durP1;ratioP1;P1;durP2;ratioP2;P2;SDS_P1;SDS_P2;PMS_P1;PMS_P2;Temp;Humidity;BMP_temperature;BMP_pressure;BME280_temperature;BME280_humidity;BME280_pressure;Samples;Min_cycle;Max_cycle;Signal;HPM_P1;HPM_P2
2023/05/13 00:01:04;;;;;;;30.65;27.45;;;13.50;99.90;;;;;;5070212;28;20083;-67
2023/05/13 00:03:30;;;;;;;32.10;27.77;;;13.40;99.90;;;;;;5070543;28;20044;-67
2023/05/13 00:05:56;;;;;;;31.88;28.65;;;13.90;99.90;;;;;;5069316;28;20048;-67
2023/05/13 00:08:22;;;;;;;32.35;28.90;;;13.60;99.90;;;;;;5067847;28;20109;-67
2023/05/13 00:10:47;;;;;;;28.30;25.45;;;13.50;99.90;;;;;;5070558;28;20041;-67
2023/05/13 00:13:13;;;;;;;32.38;27.95;;;13.50;99.90;;;;;;5069006;28;20459;-66
2023/05/13 00:15:39;;;;;;;30.83;27.73;;;13.40;99.90;;;;;;5068817;28;20513;-67
2023/05/13 00:18:05;;;;;;;31.95;28.48;;;13.30;99.90;;;;;;5069253;28;20045;-66
2023/05/13 00:20:31;;;;;;;35.47;28.10;;;13.10;99.90;;;;;;5070275;28;20044;-67
2023/05/13 00:22:56;;;;;;;32.50;28.98;;;13.20;99.90;;;;;;5070433;28;20079;-67
2023/05/13 00:25:22;;;;;;;34.92;29.85;;;13.30;99.90;;;;;;5067519;28;20525;-67
2023/05/13 00:27:47;;;;;;;34.53;30.85;;;13.00;99.90;;;;;;5068752;28;20502;-67
2023/05/13 00:30:13;;;;;;;33.95;30.33;;;13.00;99.90;;;;;;5068403;28;20463;-66
2023/05/13 00:32:38;;;;;;;34.72;31.13;;;13.10;99.90;;;;;;5070160;28;20068;-67
2023/05/13 00:35:04;;;;;;;35.25;31.10;;;13.40;99.90;;;;;;5070356;28;20033;-67
2023/05/13 00:37:30;;;;;;;34.10;30.50;;;13.40;99.90;;;;;;5070624;28;20036;-67
2023/05/13 00:39:55;;;;;;;37.20;29.95;;;13.20;99.90;;;;;;5069979;28;20043;-67
2023/05/13 00:42:21;;;;;;;32.75;28.75;;;13.20;99.90;;;;;;5068444;28;20040;-67
2023/05/13 00:44:46;;;;;;;31.25;28.00;;;13.50;99.90;;;;;;5068807;28;20115;-67
2023/05/13 00:47:12;;;;;;;31.35;28.05;;;13.50;99.90;;;;;;5067519;28;20040;-67
2023/05/13 00:49:38;;;;;;;30.20;27.25;;;13.80;99.90;;;;;;5069913;28;20355;-67
2023/05/13 00:52:04;;;;;;;33.88;26.50;;;13.60;99.90;;;;;;5067906;28;20048;-67
2023/05/13 00:54:29;;;;;;;29.70;25.35;;;13.40;99.90;;;;;;5085769;28;20041;-67
2023/05/13 00:56:56;;;;;;;31.35;26.23;;;13.70;99.90;;;;;;5068181;28;20040;-67
2023/05/13 00:59:23;;;;;;;28.13;25.23;;;13.60;99.90;;;;;;5069735;28;20040;-67
2023/05/13 01:01:55;;;;;;;31.65;25.67;;;13.70;99.90;;;;;;5069502;28;20462;-67
2023/05/13 01:04:50;;;;;;;29.38;26.35;;;13.70;99.90;;;;;;5065439;28;20577;-67
2023/05/13 01:07:26;;;;;;;28.98;26.02;;;13.70;99.90;;;;;;5066268;28;20044;-67
2023/05/13 01:09:54;;;;;;;28.15;25.25;;;13.50;99.90;;;;;;5057701;28;20119;-67
2023/05/13 01:12:25;;;;;;;27.88;24.98;;;13.50;99.90;;;;;;5050137;28;20059;-67
2023/05/13 01:15:05;;;;;;;33.35;25.92;;;13.40;99.90;;;;;;5062635;28;20048;-67
2023/05/13 01:17:48;;;;;;;26.63;23.88;;;13.50;99.90;;;;;;5067663;28;20410;-67
2023/05/13 01:20:17;;;;;;;25.92;23.33;;;13.50;99.90;;;;;;5067540;28;20036;-67
2023/05/13 01:22:42;;;;;;;25.75;23.13;;;13.70;99.90;;;;;;5068237;28;20052;-67
2023/05/13 01:25:08;;;;;;;25.60;22.83;;;13.50;99.90;;;;;;5068912;28;20541;-67
2023/05/13 01:27:33;;;;;;;27.48;24.60;;;13.70;99.90;;;;;;5069315;28;20513;-67
2023/05/13 01:29:59;;;;;;;26.77;23.23;;;13.60;99.90;;;;;;5069554;28;20156;-67
2023/05/13 01:32:25;;;;;;;25.70;23.10;;;13.80;99.90;;;;;;5069295;28;20036;-67
2023/05/13 01:34:51;;;;;;;26.00;23.45;;;13.90;99.90;;;;;;5069455;28;20118;-67
2023/05/13 01:37:18;;;;;;;28.42;25.33;;;13.80;99.90;;;;;;5068753;28;20032;-67
2023/05/13 01:39:44;;;;;;;31.90;26.40;;;13.70;99.90;;;;;;5067416;28;20060;-67
2023/05/13 01:42:10;;;;;;;30.40;27.33;;;13.90;99.90;;;;;;5068082;28;20045;-67
2023/05/13 01:44:35;;;;;;;30.75;27.17;;;14.40;99.90;;;;;;5067564;28;20383;-67
2023/05/13 01:47:01;;;;;;;31.00;27.63;;;13.80;99.90;;;;;;5068833;28;20441;-67
2023/05/13 01:49:26;;;;;;;31.20;27.83;;;14.00;99.90;;;;;;5069255;28;20037;-67
2023/05/13 01:51:52;;;;;;;31.83;28.45;;;13.90;99.90;;;;;;5069227;28;20501;-67
2023/05/13 01:54:17;;;;;;;33.47;27.77;;;13.80;99.90;;;;;;5068703;28;20036;-67
2023/05/13 01:56:43;;;;;;;30.45;27.35;;;13.80;99.90;;;;;;5066547;28;20426;-67
2023/05/13 01:59:09;;;;;;;31.15;27.88;;;13.90;99.90;;;;;;5066962;28;20508;-67
2023/05/13 02:01:35;;;;;;;29.23;26.13;;;14.20;99.90;;;;;;5067723;28;20049;-67
2023/05/13 02:04:01;;;;;;;28.88;25.63;;;14.10;99.90;;;;;;5063446;28;20397;-67
2023/05/13 02:06:27;;;;;;;29.15;26.05;;;13.90;99.90;;;;;;5061372;28;20040;-67
2023/05/13 02:08:53;;;;;;;32.08;25.75;;;14.00;99.90;;;;;;5069390;28;20123;-67
2023/05/13 02:11:18;;;;;;;30.55;26.02;;;13.90;99.90;;;;;;5067538;28;20379;-67
2023/05/13 02:13:44;;;;;;;29.92;26.80;;;14.00;99.90;;;;;;5067250;28;20047;-67
2023/05/13 02:16:14;;;;;;;28.33;25.52;;;13.80;99.90;;;;;;5068341;28;20111;-67
2023/05/13 02:18:39;;;;;;;32.25;25.58;;;13.90;99.90;;;;;;5067181;28;20402;-67
2023/05/13 02:21:05;;;;;;;29.27;26.02;;;14.10;99.90;;;;;;5050801;28;20093;-67
2023/05/13 02:23:31;;;;;;;34.08;28.10;;;13.80;99.90;;;;;;5071268;28;20040;-67
2023/05/13 02:25:56;;;;;;;31.33;28.05;;;13.80;99.90;;;;;;5070941;28;20087;-67
2023/05/13 02:28:22;;;;;;;33.65;30.00;;;13.90;99.90;;;;;;5071703;28;20504;-67
2023/05/13 02:30:47;;;;;;;34.65;30.63;;;13.90;99.90;;;;;;5072060;28;20071;-67
2023/05/13 02:33:13;;;;;;;35.13;30.92;;;13.60;99.90;;;;;;5072403;28;20040;-67
2023/05/13 02:35:38;;;;;;;35.08;31.35;;;14.40;99.90;;;;;;5050021;28;20056;-67
2023/05/13 02:38:04;;;;;;;36.15;32.30;;;14.00;99.90;;;;;;5051005;28;20057;-67
2023/05/13 02:40:29;;;;;;;32.92;29.52;;;14.10;99.90;;;;;;5052380;28;20094;-67
2023/05/13 02:42:55;;;;;;;33.10;29.65;;;13.70;99.90;;;;;;5069380;28;20047;-67
2023/05/13 02:45:20;;;;;;;39.97;31.35;;;13.70;99.90;;;;;;5070383;28;20048;-67
2023/05/13 02:47:46;;;;;;;34.70;30.98;;;13.70;99.90;;;;;;5070386;28;20087;-67
2023/05/13 02:50:12;;;;;;;34.70;30.88;;;13.70;99.90;;;;;;5070955;28;20051;-67
2023/05/13 02:52:38;;;;;;;35.80;31.98;;;14.00;99.90;;;;;;5070413;28;20029;-67
2023/05/13 02:55:08;;;;;;;35.38;31.58;;;13.60;99.90;;;;;;5071344;28;20101;-67
2023/05/13 02:57:35;;;;;;;36.47;32.58;;;13.70;99.90;;;;;;5070586;28;20044;-67
2023/05/13 03:00:01;;;;;;;35.40;31.63;;;13.80;99.90;;;;;;5071861;28;20479;-67
2023/05/13 03:02:27;;;;;;;36.25;32.38;;;13.80;99.90;;;;;;5070273;28;20436;-67
2023/05/13 03:04:53;;;;;;;37.95;33.80;;;14.30;99.90;;;;;;5070725;28;20036;-67
2023/05/13 03:07:19;;;;;;;38.25;33.95;;;13.90;99.90;;;;;;5070308;28;20043;-67
2023/05/13 03:09:45;;;;;;;40.75;35.72;;;14.30;99.90;;;;;;5069362;28;20048;-67
2023/05/13 03:12:10;;;;;;;41.45;37.03;;;13.90;99.90;;;;;;5069527;28;20044;-67
2023/05/13 03:14:36;;;;;;;45.63;37.67;;;14.40;99.90;;;;;;5069198;28;20068;-67
2023/05/13 03:17:02;;;;;;;43.85;36.17;;;14.20;99.90;;;;;;5070102;28;20040;-67
2023/05/13 03:19:28;;;;;;;42.60;38.17;;;14.40;99.90;;;;;;5070228;28;20548;-67
2023/05/13 03:21:53;;;;;;;42.13;37.33;;;14.40;99.90;;;;;;5069060;28;20048;-67
2023/05/13 03:24:19;;;;;;;42.67;36.83;;;14.40;99.90;;;;;;5069598;28;20040;-67
2023/05/13 03:26:44;;;;;;;40.63;35.47;;;14.10;99.90;;;;;;5070237;28;20044;-67
2023/05/13 03:29:10;;;;;;;41.67;36.72;;;14.40;99.90;;;;;;5069694;28;20071;-67
2023/05/13 03:31:36;;;;;;;47.42;35.05;;;14.40;99.90;;;;;;5071225;28;20131;-67
2023/05/13 03:34:01;;;;;;;41.33;34.08;;;14.30;99.90;;;;;;5069196;28;20102;-67
2023/05/13 03:36:27;;;;;;;37.20;33.00;;;14.10;99.90;;;;;;5069724;28;20047;-67
2023/05/13 03:38:53;;;;;;;37.97;31.83;;;14.20;99.90;;;;;;5069891;28;20064;-67
2023/05/13 03:41:18;;;;;;;36.47;32.30;;;14.20;99.90;;;;;;5071508;28;20466;-67
2023/05/13 03:43:44;;;;;;;36.28;31.92;;;14.10;99.90;;;;;;5070142;28;20048;-67
2023/05/13 03:46:10;;;;;;;38.78;30.42;;;14.10;99.90;;;;;;5067117;28;20051;-67
2023/05/13 03:48:36;;;;;;;36.50;29.38;;;14.30;99.90;;;;;;5050057;28;20448;-67
2023/05/13 03:51:02;;;;;;;31.55;26.33;;;14.00;99.90;;;;;;5049863;28;20399;-67
2023/05/13 03:53:27;;;;;;;35.22;27.02;;;14.30;99.90;;;;;;5064940;28;20044;-67
2023/05/13 03:55:53;;;;;;;31.38;27.52;;;14.20;99.90;;;;;;5071175;28;20044;-67
2023/05/13 03:58:20;;;;;;;30.65;27.40;;;14.30;99.90;;;;;;5070231;28;20036;-67
2023/05/13 04:00:46;;;;;;;34.00;26.83;;;14.20;99.90;;;;;;5069393;28;20057;-67
2023/05/13 04:03:12;;;;;;;30.35;27.23;;;14.20;99.90;;;;;;5069549;28;20469;-67
2023/05/13 04:05:38;;;;;;;33.67;29.55;;;14.10;99.90;;;;;;5070393;28;20045;-67
2023/05/13 04:08:03;;;;;;;35.63;27.10;;;13.80;99.90;;;;;;5069501;28;20039;-67
2023/05/13 04:10:29;;;;;;;34.10;29.13;;;13.70;99.90;;;;;;5069684;28;20135;-67
2023/05/13 04:12:55;;;;;;;32.75;28.38;;;13.70;99.90;;;;;;5062698;28;20669;-67
2023/05/13 04:15:20;;;;;;;31.55;27.63;;;13.70;99.90;;;;;;5069359;28;20037;-67
2023/05/13 04:17:46;;;;;;;29.02;25.95;;;14.00;99.90;;;;;;5069177;28;20477;-67
2023/05/13 04:20:12;;;;;;;31.30;25.75;;;14.40;99.90;;;;;;5070007;28;20155;-67
2023/05/13 04:22:37;;;;;;;30.02;25.13;;;14.00;99.90;;;;;;5068614;28;20064;-67
2023/05/13 04:25:03;;;;;;;27.05;24.08;;;14.00;99.90;;;;;;5068734;28;20048;-67
2023/05/13 04:27:29;;;;;;;31.20;25.30;;;13.80;99.90;;;;;;5070359;28;20094;-67
2023/05/13 04:29:54;;;;;;;29.60;24.92;;;13.80;99.90;;;;;;5068869;28;20048;-67
2023/05/13 04:32:20;;;;;;;31.85;24.55;;;13.80;99.90;;;;;;5068039;28;20498;-67
2023/05/13 04:34:51;;;;;;;26.50;23.92;;;14.10;99.90;;;;;;5068839;28;20138;-67
2023/05/13 04:37:17;;;;;;;24.88;22.35;;;13.80;99.90;;;;;;5085809;28;20051;-67
2023/05/13 04:39:47;;;;;;;24.23;21.52;;;14.00;99.90;;;;;;5068881;28;20051;-67
2023/05/13 04:42:16;;;;;;;24.00;21.50;;;14.20;99.90;;;;;;5068468;28;20093;-67
2023/05/13 04:44:42;;;;;;;22.58;20.27;;;13.90;99.90;;;;;;5068611;28;20491;-67
2023/05/13 04:47:07;;;;;;;23.27;20.77;;;14.30;99.90;;;;;;5067985;28;20058;-67
2023/05/13 04:49:33;;;;;;;23.67;19.38;;;14.00;99.90;;;;;;5068650;28;20127;-67
2023/05/13 04:52:01;;;;;;;22.23;19.67;;;14.30;99.90;;;;;;5067000;28;20043;-67
2023/05/13 04:54:26;;;;;;;22.50;18.92;;;15.30;99.90;;;;;;5067837;28;20075;-67
2023/05/13 04:56:52;;;;;;;24.05;18.40;;;14.10;99.90;;;;;;5066888;28;20037;-68
2023/05/13 04:59:17;;;;;;;21.45;19.13;;;14.50;99.90;;;;;;5069802;28;20143;-67
2023/05/13 05:01:43;;;;;;;20.50;18.35;;;14.30;99.90;;;;;;5067922;28;20062;-67
2023/05/13 05:04:09;;;;;;;20.80;18.67;;;14.40;99.90;;;;;;5068201;28;20526;-67
2023/05/13 05:06:34;;;;;;;21.38;18.77;;;14.50;99.90;;;;;;5068581;28;20056;-67
2023/05/13 05:09:00;;;;;;;19.48;17.45;;;14.50;99.90;;;;;;5068557;28;20055;-67
2023/05/13 05:11:26;;;;;;;20.60;18.40;;;14.60;99.90;;;;;;5069419;28;20033;-67
2023/05/13 05:13:51;;;;;;;26.52;19.20;;;14.90;99.90;;;;;;5068424;28;20585;-68
2023/05/13 05:16:17;;;;;;;21.30;19.08;;;14.90;99.90;;;;;;5068023;28;20126;-68
2023/05/13 05:18:42;;;;;;;23.30;19.27;;;14.70;99.90;;;;;;5068136;28;20466;-68
2023/05/13 05:21:11;;;;;;;25.08;19.13;;;15.10;99.90;;;;;;5068280;28;20067;-67
2023/05/13 05:23:37;;;;;;;21.77;19.05;;;15.00;99.90;;;;;;5069550;28;20051;-67
2023/05/13 05:26:04;;;;;;;25.15;19.58;;;15.00;99.90;;;;;;5069627;28;20044;-67
2023/05/13 05:28:29;;;;;;;26.10;19.88;;;15.40;99.90;;;;;;5067165;28;20036;-68
2023/05/13 05:30:55;;;;;;;25.92;20.10;;;15.20;99.90;;;;;;5067151;28;20528;-68
2023/05/13 05:33:21;;;;;;;27.10;20.08;;;15.50;99.90;;;;;;5068263;28;20048;-68
2023/05/13 05:35:47;;;;;;;23.33;18.65;;;15.60;99.90;;;;;;5069563;28;20486;-68
2023/05/13 05:38:13;;;;;;;21.52;19.23;;;15.40;99.90;;;;;;5064650;28;20087;-68
2023/05/13 05:40:41;;;;;;;25.60;18.30;;;15.80;99.90;;;;;;5066890;28;20051;-67
2023/05/13 05:43:07;;;;;;;23.75;17.80;;;15.70;99.90;;;;;;5067732;28;20052;-68
2023/05/13 05:45:39;;;;;;;28.63;18.92;;;15.70;99.90;;;;;;5069137;28;20125;-67
2023/05/13 05:48:05;;;;;;;25.98;19.80;;;15.70;99.90;;;;;;5067116;28;20123;-68
2023/05/13 05:50:32;;;;;;;22.85;17.58;;;15.90;99.90;;;;;;5063152;28;20063;-68
2023/05/13 05:52:58;;;;;;;25.35;18.92;;;15.70;99.90;;;;;;5055007;28;20033;-67
2023/05/13 05:55:26;;;;;;;29.92;18.98;;;16.00;99.90;;;;;;5067649;28;20045;-68
2023/05/13 05:57:52;;;;;;;26.55;18.75;;;16.00;99.90;;;;;;5071358;28;20501;-68
2023/05/13 06:00:17;;;;;;;26.77;18.60;;;15.90;99.90;;;;;;5064126;28;20170;-68
2023/05/13 06:02:43;;;;;;;23.00;16.48;;;16.10;99.90;;;;;;5071752;28;20119;-68
2023/05/13 06:05:09;;;;;;;20.38;14.95;;;16.00;99.90;;;;;;5071831;28;20447;-68
2023/05/13 06:07:34;;;;;;;20.38;15.93;;;16.10;99.90;;;;;;5054672;28;20047;-67
2023/05/13 06:10:00;;;;;;;20.92;15.43;;;16.60;99.90;;;;;;5068156;28;20091;-68
2023/05/13 06:12:25;;;;;;;23.75;15.77;;;16.20;99.90;;;;;;5070898;28;20098;-68
2023/05/13 06:14:51;;;;;;;21.02;15.00;;;16.20;1.00;;;;;;5068506;28;20048;-68
2023/05/13 06:17:17;;;;;;;20.23;15.80;;;16.30;99.90;;;;;;5066370;28;20076;-68
2023/05/13 06:19:42;;;;;;;21.75;14.55;;;16.30;99.90;;;;;;5052639;28;20049;-68
2023/05/13 06:22:09;;;;;;;18.23;13.90;;;16.40;1.00;;;;;;5071079;28;20055;-68
2023/05/13 06:24:35;;;;;;;19.80;14.30;;;16.30;1.00;;;;;;5068885;28;20128;-68
2023/05/13 06:27:00;;;;;;;16.05;11.98;;;16.60;99.90;;;;;;5070936;28;20111;-68
2023/05/13 06:29:26;;;;;;;17.77;11.55;;;16.50;99.90;;;;;;5071183;28;20118;-68
2023/05/13 06:31:52;;;;;;;15.98;11.10;;;16.60;99.90;;;;;;5070549;28;20048;-68
2023/05/13 06:34:18;;;;;;;12.98;10.73;;;16.60;99.90;;;;;;5068177;28;20130;-68
2023/05/13 06:36:43;;;;;;;14.27;10.35;;;16.60;15.00;;;;;;5070484;28;20119;-68
2023/05/13 06:39:12;;;;;;;14.45;10.65;;;16.70;99.90;;;;;;5079796;28;20071;-68
2023/05/13 06:41:41;;;;;;;18.17;10.40;;;16.80;99.90;;;;;;5070528;28;20437;-68
2023/05/13 06:44:06;;;;;;;14.20;10.25;;;16.90;1.00;;;;;;5069669;28;20055;-68
2023/05/13 06:46:32;;;;;;;15.23;9.95;;;16.80;99.90;;;;;;5069461;28;20029;-68
2023/05/13 06:48:58;;;;;;;15.45;9.05;;;17.00;11.40;;;;;;5067989;28;20355;-68
2023/05/13 06:51:26;;;;;;;13.40;8.55;;;17.00;99.90;;;;;;5069219;28;20039;-68
2023/05/13 06:53:52;;;;;;;13.07;9.10;;;17.10;99.90;;;;;;5069096;28;20072;-68
2023/05/13 06:56:18;;;;;;;13.98;8.85;;;17.10;99.90;;;;;;5070490;28;20108;-68
2023/05/13 06:58:44;;;;;;;11.60;8.13;;;17.20;90.90;;;;;;5067487;28;20048;-69
2023/05/13 07:01:10;;;;;;;13.68;8.82;;;17.40;6.80;;;;;;5068560;28;20047;-68
2023/05/13 07:03:36;;;;;;;15.55;9.35;;;17.50;1.00;;;;;;5069237;28;20087;-69
2023/05/13 07:06:03;;;;;;;15.13;8.73;;;17.70;1.00;;;;;;5066528;28;20588;-68
2023/05/13 07:08:28;;;;;;;11.90;9.18;;;17.90;1.00;;;;;;5065554;28;20051;-69
2023/05/13 07:10:54;;;;;;;14.40;8.43;;;17.90;99.90;;;;;;5067634;28;20040;-68
2023/05/13 07:13:21;;;;;;;15.23;8.30;;;18.00;99.90;;;;;;5066603;28;20071;-68
2023/05/13 07:15:47;;;;;;;10.55;8.07;;;18.00;99.90;;;;;;5070208;28;20033;-68
2023/05/13 07:18:12;;;;;;;14.20;8.35;;;18.00;99.90;;;;;;5067392;28;20118;-69
2023/05/13 07:20:38;;;;;;;11.10;7.45;;;18.10;99.90;;;;;;5066723;28;20490;-68
2023/05/13 07:23:03;;;;;;;12.02;8.10;;;18.20;63.80;;;;;;5067946;28;20072;-71
2023/05/13 07:25:29;;;;;;;13.63;8.65;;;18.20;22.40;;;;;;5067687;28;20041;-67
2023/05/13 07:27:55;;;;;;;12.90;9.50;;;18.40;22.40;;;;;;5067978;28;20051;-74
2023/05/13 07:30:20;;;;;;;13.10;8.05;;;18.40;20.50;;;;;;5066999;28;20044;-68
2023/05/13 07:32:46;;;;;;;11.90;8.27;;;18.50;1.00;;;;;;5069049;28;20040;-68
2023/05/13 07:35:12;;;;;;;12.75;7.47;;;18.60;1.00;;;;;;5067469;28;20042;-68
2023/05/13 07:37:37;;;;;;;12.48;7.93;;;18.50;1.00;;;;;;5063252;28;20483;-71
2023/05/13 07:40:06;;;;;;;10.57;8.25;;;19.00;1.00;;;;;;5069149;28;20071;-68
2023/05/13 07:42:32;;;;;;;13.40;8.00;;;18.70;1.00;;;;;;5066735;28;20048;-72
2023/05/13 07:44:58;;;;;;;17.90;8.60;;;18.80;1.00;;;;;;5045141;28;20446;-69
2023/05/13 07:47:23;;;;;;;15.52;7.65;;;18.80;1.00;;;;;;5062997;28;20817;-71
2023/05/13 07:49:49;;;;;;;11.20;8.20;;;18.80;1.00;;;;;;5069355;28;20471;-73
2023/05/13 07:52:15;;;;;;;13.13;8.70;;;18.90;1.00;;;;;;5067582;28;20047;-69
2023/05/13 07:54:40;;;;;;;12.35;7.88;;;19.00;1.00;;;;;;5065112;28;20478;-68
2023/05/13 07:57:06;;;;;;;13.60;8.07;;;18.80;99.90;;;;;;5064635;28;20429;-72
2023/05/13 07:59:32;;;;;;;13.25;8.45;;;19.00;99.90;;;;;;5067019;28;20052;-80
2023/05/13 08:01:57;;;;;;;11.00;8.00;;;19.20;99.90;;;;;;5052535;28;20047;-74
2023/05/13 08:04:23;;;;;;;12.32;7.68;;;19.10;99.90;;;;;;5069339;28;20047;-71
2023/05/13 08:06:49;;;;;;;13.38;7.40;;;19.10;99.90;;;;;;5069496;28;20653;-69
2023/05/13 08:09:14;;;;;;;12.02;8.02;;;19.50;99.90;;;;;;5069636;28;20136;-69
2023/05/13 08:11:40;;;;;;;12.77;8.00;;;19.30;99.90;;;;;;5070132;28;20517;-70
2023/05/13 08:14:05;;;;;;;10.85;7.97;;;19.60;99.90;;;;;;5069163;28;20513;-69
2023/05/13 08:16:35;;;;;;;10.95;7.10;;;19.80;99.90;;;;;;5069258;28;20044;-70
2023/05/13 08:19:00;;;;;;;10.65;7.13;;;19.70;99.90;;;;;;5069004;28;20101;-69
2023/05/13 08:21:26;;;;;;;13.52;7.75;;;19.60;99.90;;;;;;5051202;28;20581;-76
2023/05/13 08:23:51;;;;;;;12.48;6.97;;;19.70;99.90;;;;;;5068782;28;20131;-73
2023/05/13 08:26:17;;;;;;;10.60;6.93;;;19.70;99.90;;;;;;5068965;28;20044;-70
2023/05/13 08:28:42;;;;;;;12.00;7.43;;;19.70;99.90;;;;;;5068907;28;20041;-70
2023/05/13 08:31:11;;;;;;;11.32;7.20;;;19.80;99.90;;;;;;5068633;28;20037;-68
2023/05/13 08:33:36;;;;;;;11.50;7.32;;;19.70;99.90;;;;;;5085686;28;20044;-72
2023/05/13 08:36:02;;;;;;;9.45;7.32;;;19.80;99.90;;;;;;5068946;28;20040;-74
2023/05/13 08:38:28;;;;;;;13.65;7.93;;;19.70;99.90;;;;;;5068885;28;20094;-74
2023/05/13 08:40:53;;;;;;;14.38;7.82;;;19.70;99.90;;;;;;5068868;28;20049;-74
2023/05/13 08:43:21;;;;;;;11.23;7.15;;;19.70;99.90;;;;;;5052220;28;20440;-68
2023/05/13 08:45:49;;;;;;;10.55;7.18;;;20.00;99.90;;;;;;5068346;28;20483;-70
2023/05/13 08:48:15;;;;;;;11.82;8.18;;;19.70;99.90;;;;;;5048624;28;20145;-71
2023/05/13 08:50:42;;;;;;;14.23;8.30;;;19.70;99.90;;;;;;5049069;28;20538;-69
2023/05/13 08:53:10;;;;;;;17.27;8.00;;;19.80;99.90;;;;;;5048904;28;20048;-71
2023/05/13 08:55:38;;;;;;;13.95;7.55;;;19.80;99.90;;;;;;5048839;28;20667;-73
2023/05/13 08:58:03;;;;;;;12.82;7.53;;;20.30;99.90;;;;;;5048507;28;20122;-68
2023/05/13 09:00:29;;;;;;;14.73;7.25;;;19.80;99.90;;;;;;5056332;28;20076;-71
2023/05/13 09:02:54;;;;;;;11.73;7.70;;;20.20;99.90;;;;;;5085201;28;20040;-67
2023/05/13 09:05:20;;;;;;;11.18;7.70;;;19.70;99.90;;;;;;5067968;28;20145;-73
2023/05/13 09:07:46;;;;;;;15.88;7.60;;;19.70;99.90;;;;;;5068251;28;20040;-75
2023/05/13 09:10:12;;;;;;;10.15;7.72;;;19.70;99.90;;;;;;5068272;28;20501;-72
2023/05/13 09:12:44;;;;;;;11.82;7.47;;;19.70;99.90;;;;;;5068631;28;20033;-72
2023/05/13 09:15:18;;;;;;;11.18;7.10;;;20.40;99.90;;;;;;5067369;28;20047;-71
2023/05/13 09:17:48;;;;;;;13.18;8.23;;;19.70;99.90;;;;;;5042546;28;20127;-71
2023/05/13 09:20:16;;;;;;;14.85;7.68;;;19.80;99.90;;;;;;5063465;28;20048;-71
2023/05/13 09:22:45;;;;;;;13.05;7.60;;;19.80;99.90;;;;;;5066443;28;20497;-72
2023/05/13 09:25:12;;;;;;;14.75;7.93;;;19.80;99.90;;;;;;5067441;28;20403;-71
2023/05/13 09:27:40;;;;;;;14.55;9.07;;;19.80;99.90;;;;;;5068239;28;20101;-71
2023/05/13 09:30:06;;;;;;;12.30;7.88;;;19.80;99.90;;;;;;5050914;28;20051;-71
2023/05/13 09:32:32;;;;;;;12.77;8.52;;;19.80;99.90;;;;;;5051075;28;20080;-71
2023/05/13 09:35:17;;;;;;;11.95;8.00;;;19.80;99.90;;;;;;5067987;28;20071;-71
2023/05/13 09:37:46;;;;;;;11.32;7.78;;;19.70;99.90;;;;;;5051267;28;20038;-71
2023/05/13 09:40:14;;;;;;;15.93;8.70;;;19.70;99.90;;;;;;5056196;28;20449;-71
2023/05/13 09:42:44;;;;;;;12.80;7.82;;;19.70;99.90;;;;;;5048009;28;20127;-71
2023/05/13 09:45:15;;;;;;;12.43;7.53;;;19.90;99.90;;;;;;5048004;28;20049;-71
2023/05/13 09:47:41;;;;;;;11.38;7.93;;;19.70;99.90;;;;;;5063726;28;20400;-71
2023/05/13 09:50:08;;;;;;;14.73;8.75;;;19.60;99.90;;;;;;5084464;28;20060;-70
2023/05/13 09:52:35;;;;;;;12.32;8.40;;;19.60;99.90;;;;;;5067816;28;20478;-71
2023/05/13 09:55:03;;;;;;;14.15;8.27;;;19.60;99.90;;;;;;5067311;28;20040;-70
2023/05/13 09:57:29;;;;;;;13.40;7.63;;;19.50;99.90;;;;;;5057776;28;20468;-71
2023/05/13 10:00:15;;;;;;;13.77;7.28;;;19.50;99.90;;;;;;5067758;28;20052;-71
2023/05/13 10:02:41;;;;;;;17.52;7.85;;;19.50;99.90;;;;;;5066390;28;20098;-71
2023/05/13 10:05:08;;;;;;;13.23;7.85;;;19.30;99.90;;;;;;5067613;28;20389;-70
2023/05/13 10:07:36;;;;;;;14.13;7.75;;;19.30;99.90;;;;;;5067507;28;20063;-70
2023/05/13 10:10:03;;;;;;;10.80;8.00;;;19.30;99.90;;;;;;5067548;28;20036;-70
2023/05/13 10:12:31;;;;;;;11.52;8.10;;;19.30;99.90;;;;;;5047622;28;20403;-70
2023/05/13 10:14:58;;;;;;;11.07;8.30;;;19.30;99.90;;;;;;5047604;28;20119;-70
2023/05/13 10:17:24;;;;;;;13.63;8.07;;;19.40;99.90;;;;;;5047473;28;20037;-70
2023/05/13 10:19:52;;;;;;;10.75;7.75;;;19.40;99.90;;;;;;5049384;28;20041;-70
2023/05/13 10:22:31;;;;;;;20.30;8.60;;;19.40;99.90;;;;;;5067368;28;20040;-70
2023/05/13 10:24:58;;;;;;;12.40;8.10;;;19.40;99.90;;;;;;5067560;28;20028;-70
2023/05/13 10:27:29;;;;;;;14.85;8.35;;;19.50;99.90;;;;;;5067375;28;20045;-70
2023/05/13 10:29:56;;;;;;;16.50;9.93;;;19.50;99.90;;;;;;5067307;28;20048;-70
2023/05/13 10:32:27;;;;;;;12.57;8.82;;;19.50;99.90;;;;;;5067395;28;20070;-70
2023/05/13 10:35:15;;;;;;;16.77;9.80;;;19.40;99.90;;;;;;5067412;28;20099;-70
2023/05/13 10:38:00;;;;;;;17.83;10.02;;;19.30;99.90;;;;;;5066799;28;20043;-70
2023/05/13 10:40:47;;;;;;;12.90;9.82;;;19.40;99.90;;;;;;5067502;28;20041;-71
2023/05/13 10:43:21;;;;;;;15.13;9.43;;;19.30;99.90;;;;;;5067961;28;20410;-70
2023/05/13 10:45:49;;;;;;;13.45;10.13;;;19.50;99.90;;;;;;5071171;28;20491;-70
2023/05/13 10:48:16;;;;;;;14.70;9.43;;;19.50;99.90;;;;;;5071184;28;20040;-70
2023/05/13 10:50:56;;;;;;;14.32;8.88;;;19.50;99.90;;;;;;5087422;28;20036;-71
2023/05/13 10:53:29;;;;;;;11.63;8.85;;;19.40;99.90;;;;;;5075264;28;20051;-71
2023/05/13 10:55:58;;;;;;;16.60;8.23;;;19.40;99.90;;;;;;5065269;28;20406;-75
2023/05/13 10:58:31;;;;;;;13.50;8.88;;;19.40;99.90;;;;;;5055760;28;20149;-72
2023/05/13 11:01:16;;;;;;;13.30;9.10;;;19.40;99.90;;;;;;5051606;28;20041;-69
2023/05/13 11:04:02;;;;;;;14.63;8.77;;;19.50;99.90;;;;;;5052825;28;20506;-75
2023/05/13 11:06:49;;;;;;;16.98;9.68;;;19.60;99.90;;;;;;5061380;28;20055;-72
2023/05/13 11:09:28;;;;;;;15.48;9.27;;;19.50;99.90;;;;;;5055423;28;20083;-72
2023/05/13 11:11:58;;;;;;;13.60;8.43;;;19.50;99.90;;;;;;5053783;28;20040;-70
2023/05/13 11:14:25;;;;;;;20.90;9.23;;;19.40;99.90;;;;;;5069891;28;20462;-72
2023/05/13 11:17:03;;;;;;;14.65;9.20;;;19.40;99.90;;;;;;5052362;28;20029;-71
2023/05/13 11:19:36;;;;;;;12.10;9.05;;;19.30;99.90;;;;;;5055666;28;20119;-70
2023/05/13 11:22:09;;;;;;;13.93;9.15;;;19.40;99.90;;;;;;5055465;28;20045;-70
2023/05/13 11:24:35;;;;;;;14.27;8.57;;;19.30;99.90;;;;;;5053414;28;20037;-70
2023/05/13 11:27:16;;;;;;;13.15;8.95;;;19.40;99.90;;;;;;5051701;28;20037;-69
2023/05/13 11:29:49;;;;;;;13.18;8.43;;;19.30;99.90;;;;;;5055005;28;20075;-69
2023/05/13 11:32:35;;;;;;;16.00;8.57;;;19.50;99.90;;;;;;5067501;28;20064;-70
2023/05/13 11:35:00;;;;;;;13.70;9.37;;;19.40;99.90;;;;;;5052556;28;20040;-69
2023/05/13 11:37:26;;;;;;;18.13;9.68;;;19.40;99.90;;;;;;5052673;28;20287;-71
2023/05/13 11:39:51;;;;;;;14.60;9.48;;;19.50;99.90;;;;;;5055290;28;20048;-75
2023/05/13 11:42:17;;;;;;;15.00;9.88;;;19.40;99.90;;;;;;5055458;28;20041;-73
2023/05/13 11:44:48;;;;;;;15.38;8.40;;;19.40;99.90;;;;;;5053547;28;20043;-72
2023/05/13 11:47:14;;;;;;;14.57;8.40;;;19.50;99.90;;;;;;5051672;28;20124;-69
2023/05/13 11:49:43;;;;;;;18.48;9.60;;;19.70;99.90;;;;;;5055583;28;20041;-68
2023/05/13 11:52:11;;;;;;;15.18;9.88;;;19.60;99.90;;;;;;5054979;28;20483;-70
2023/05/13 11:54:46;;;;;;;12.18;8.48;;;19.60;99.90;;;;;;5053625;28;20060;-71
2023/05/13 11:57:22;;;;;;;15.45;8.85;;;19.50;99.90;;;;;;5036324;28;20460;-70
2023/05/13 11:59:55;;;;;;;19.58;8.38;;;20.10;99.90;;;;;;5050357;28;20481;-69
2023/05/13 12:02:36;;;;;;;17.52;8.85;;;19.60;99.90;;;;;;5058132;28;20182;-69
2023/05/13 12:05:04;;;;;;;12.25;8.57;;;19.60;99.90;;;;;;5054654;28;20048;-69
2023/05/13 12:07:30;;;;;;;12.95;8.48;;;19.60;99.90;;;;;;5055297;28;20044;-69
2023/05/13 12:09:58;;;;;;;12.80;8.45;;;19.70;99.90;;;;;;5053207;28;20048;-69
2023/05/13 12:12:25;;;;;;;17.83;8.68;;;19.80;99.90;;;;;;5051342;28;20115;-69
2023/05/13 12:14:53;;;;;;;11.63;7.85;;;19.70;99.90;;;;;;5060193;28;20561;-69
2023/05/13 12:17:20;;;;;;;14.68;9.10;;;19.60;99.90;;;;;;5061032;28;20123;-69
2023/05/13 12:20:04;;;;;;;15.45;8.77;;;19.60;99.90;;;;;;5055840;28;20049;-70
2023/05/13 12:22:30;;;;;;;15.35;9.40;;;19.60;99.90;;;;;;5053919;28;20530;-69
2023/05/13 12:24:59;;;;;;;14.10;9.07;;;19.50;99.90;;;;;;5054216;28;20086;-69
2023/05/13 12:27:25;;;;;;;15.23;10.32;;;19.80;99.90;;;;;;5065759;28;20052;-69
2023/05/13 12:29:54;;;;;;;17.80;9.40;;;19.50;99.90;;;;;;5053137;28;20041;-70
2023/05/13 12:32:19;;;;;;;14.75;9.45;;;19.40;99.90;;;;;;5056252;28;20048;-69
2023/05/13 12:34:49;;;;;;;13.52;9.60;;;19.40;99.90;;;;;;5051464;28;20390;-69